createdAt,value
2022-09-17T00:12:06.417Z,11.3
2022-09-17T00:26:35.732Z,11.4
2022-09-17T00:41:05.562Z,11.2
2022-09-17T00:55:36.034Z,11.3
2022-09-17T01:10:05.758Z,11.2
2022-09-17T01:24:42.235Z,11.1
2022-09-17T01:39:14.458Z,11.2
2022-09-17T01:53:44.053Z,11.2
2022-09-17T02:08:16.389Z,11.1
2022-09-17T02:22:42.238Z,11.4
2022-09-17T02:37:12.024Z,11.3
2022-09-17T02:51:42.235Z,11.3
2022-09-17T03:06:08.183Z,11.2
2022-09-17T03:20:43.836Z,11.3
2022-09-17T03:35:16.437Z,11.3
2022-09-17T03:49:43.390Z,11.3
2022-09-17T04:04:19.440Z,11.1
2022-09-17T04:18:52.499Z,11.2
2022-09-17T04:33:18.762Z,11.3
2022-09-17T04:47:49.626Z,11.4
2022-09-17T05:02:25.472Z,11.3
2022-09-17T05:16:57.453Z,11.3
2022-09-17T05:31:29.459Z,11.3
2022-09-17T05:45:53.012Z,11.3
2022-09-17T06:00:23.849Z,11.3
2022-09-17T06:14:54.752Z,11.5
2022-09-17T06:29:24.102Z,11.4
2022-09-17T06:43:53.359Z,11.5
2022-09-17T06:58:24.015Z,11.7
2022-09-17T07:12:53.701Z,11.8
2022-09-17T07:27:25.141Z,11.9
2022-09-17T07:41:57.718Z,12
2022-09-17T07:56:33.439Z,11.9
2022-09-17T08:11:05.586Z,12
2022-09-17T08:25:36.566Z,13.1
2022-09-17T08:40:09.475Z,13.5
2022-09-17T08:54:39.376Z,13.5
2022-09-17T09:09:16.876Z,14.2
2022-09-17T09:23:47.737Z,15.4
2022-09-17T09:38:14.584Z,14.3
2022-09-17T09:52:42.856Z,14.1
2022-09-17T10:07:11.598Z,14.1
2022-09-17T10:21:43.906Z,14.6
2022-09-17T10:36:14.338Z,14.6
2022-09-17T10:50:46.269Z,14.7
2022-09-17T11:05:14.633Z,14.3
2022-09-17T11:19:44.159Z,13.9
2022-09-17T11:34:14.678Z,14.7
2022-09-17T11:48:43.636Z,14.1
2022-09-17T12:03:14.076Z,13.4
2022-09-17T12:17:43.062Z,13.6
2022-09-17T12:32:11.769Z,13
2022-09-17T12:46:38.484Z,12.2
2022-09-17T13:01:07.744Z,11.9
2022-09-17T13:15:38.007Z,11.9
2022-09-17T13:30:08.137Z,12.6
2022-09-17T13:44:38.993Z,13.3
2022-09-17T13:59:10.262Z,13.8
2022-09-17T14:13:40.877Z,14.2
2022-09-17T14:28:11.359Z,14.3
2022-09-17T14:42:39.865Z,14.1
2022-09-17T14:57:06.871Z,11.6
2022-09-17T15:11:34.260Z,11.8
2022-09-17T15:26:05.891Z,12.3
2022-09-17T15:40:35.462Z,12.4
2022-09-17T15:54:57.443Z,12.5
2022-09-17T16:09:27.956Z,12.6
2022-09-17T16:23:56.906Z,12.4
2022-09-17T16:38:25.557Z,12.6
2022-09-17T16:52:56.387Z,12.4
2022-09-17T17:07:28.530Z,12
2022-09-17T17:21:56.548Z,11.4
2022-09-17T17:36:26.223Z,11.6
2022-09-17T17:50:56.935Z,11.3
2022-09-17T18:05:24.891Z,11.1
2022-09-17T18:19:55.195Z,10.8
2022-09-17T18:34:23.942Z,10.9
2022-09-17T18:48:53.304Z,11.1
2022-09-17T19:03:22.664Z,11
2022-09-17T19:17:53.203Z,11.1
2022-09-17T19:32:21.900Z,11
2022-09-17T19:47:06.524Z,11.1
2022-09-17T20:01:29.215Z,11.3
2022-09-17T20:15:59.226Z,11.4
2022-09-17T20:30:29.720Z,11.4
2022-09-17T20:45:00.763Z,11.4
2022-09-17T20:59:28.915Z,11.4
2022-09-17T21:13:59.344Z,11.6
2022-09-17T21:28:27.981Z,11
2022-09-17T21:42:57.478Z,11
2022-09-17T21:57:26.457Z,11
2022-09-17T22:11:58.164Z,11.1
2022-09-17T22:26:27.759Z,11
2022-09-17T22:40:57.715Z,11
2022-09-17T22:55:28.236Z,11.2
2022-09-17T23:09:58.645Z,11
2022-09-17T23:24:29.310Z,11.1
2022-09-17T23:39:00.077Z,11.2
2022-09-17T23:53:29.944Z,11.3
